Strona główna
METAR-TAF:

METAR-TAF

Lotnisko :

La Chaux-de-Fonds, Szwajcaria

Szerokość geograficzna: 47-05-03N, Długość geograficzna: 006-47-37E, wysokość: 1027 m

Aktualna obserwacja pogody

Raport powstał 19 minut temu, godzina 11:50 UTC
Wiatr 5 kt od południowo-południowy zachód, zmienny między południe i zachodnio-południowy zachód
Temperatura 9°C
Wilgotność 61%
Ciśnienie 1008 hPa
Widzialność 10 km lub więcej
Brak chmur poniżej 1500 m i brak chmur cumulonimbus

METAR: LSGC 161150Z 21005KT 180V250 CAVOK 09/02 Q1008

czas: 13:09 (12:09 UTC)

Prognoza

Raport powstał 44 minut temu, godzina 11:25 UTC
Prognoza ważna od 16 godzina 12 UTC do 16 godzina 21 UTC
Wiatr 7 kt od południowy zachód
Widzialność 10 km lub więcej
Brak chmur poniżej 1500 m i brak chmur cumulonimbus

TAF: LSGC 161125Z 1612/1621 22007KT CAVOK

Obserwacja i prognoza pogody dla ponad 4000 lotnisk (raport METAR i TAF).

Dostępne stacje oznaczono żółtymi i czerwonymi punktami na mapie.

Najedź kursorem aby zobaczyć nazwę stacji.

Kliknij aby zobaczyć obserwacje i prognozy pogody.

Aby zmienić mapę: kliknij na zielony przycisk z czarnym krzyżykiem, aby powiększyć; na zielony przycisk z myślnikiem, aby pomniejszyć; na zielone strzałki, aby przejść do map sąsiednich.


METAR-TAF: